Terminal Aerodrome Forecast
Issued by NWS Twin Cities, MN

Home | Current Version | Previous Version | Graphics & Text | Print | Product List | Glossary On
Versions: 1 2 3 4 5 6 7 8 9 10 11 12 13 14 15 16 17
562
FTUS43 KMPX 280520
TAFEAU
TAF
KEAU 280520Z 2806/2906 04004KT P6SM VCSH OVC008
      TEMPO 2806/2808 SCT008 OVC035
     FM281700 06007KT P6SM VCSH OVC015
     FM282000 04005KT P6SM VCSH OVC025
     FM290000 04003KT P6SM OVC035=

USA.gov is the U.S. government's official web portal to all federal, state and local government web resources and services.